createdAt,value
2022-08-26T00:04:38.184Z,100591.00
2022-08-26T00:09:41.553Z,100589.00
2022-08-26T00:14:50.402Z,100583.20
2022-08-26T00:19:53.808Z,100585.00
2022-08-26T00:24:57.016Z,100590.20
2022-08-26T00:30:09.971Z,100584.40
2022-08-26T00:35:14.615Z,100576.40
2022-08-26T00:40:27.223Z,100572.00
2022-08-26T00:45:45.441Z,100568.80
2022-08-26T00:50:56.749Z,100562.80
2022-08-26T00:56:11.785Z,100558.80
2022-08-26T01:01:18.737Z,100561.20
2022-08-26T01:06:27.524Z,100564.80
2022-08-26T01:11:32.705Z,100569.20
2022-08-26T01:16:37.373Z,100574.40
2022-08-26T01:22:22.800Z,100570.00
2022-08-26T01:27:33.627Z,100569.00
2022-08-26T01:32:38.855Z,100570.20
2022-08-26T01:37:42.382Z,100569.60
2022-08-26T01:42:47.000Z,100568.40
2022-08-26T01:47:56.770Z,100566.40
2022-08-26T01:53:07.779Z,100571.60
2022-08-26T01:58:28.679Z,100575.60
2022-08-26T02:03:34.059Z,100565.20
2022-08-26T02:08:48.130Z,100561.20
2022-08-26T02:14:03.099Z,100562.40
2022-08-26T02:19:17.233Z,100564.20
2022-08-26T02:24:29.419Z,100560.60
2022-08-26T02:29:41.690Z,100564.60
2022-08-26T02:34:47.066Z,100564.80
2022-08-26T02:39:50.337Z,100564.80
2022-08-26T02:44:56.334Z,100563.20
2022-08-26T02:50:00.616Z,100560.20
2022-08-26T02:55:07.260Z,100561.60
2022-08-26T03:00:14.937Z,100563.00
2022-08-26T03:05:19.942Z,100558.40
2022-08-26T03:10:25.977Z,100555.80
2022-08-26T03:15:29.523Z,100560.00
2022-08-26T03:20:34.307Z,100555.80
2022-08-26T03:25:38.080Z,100557.80
2022-08-26T03:30:44.874Z,100555.20
2022-08-26T03:35:50.575Z,100553.40
2022-08-26T03:40:54.214Z,100553.40
2022-08-26T03:45:57.587Z,100546.20
2022-08-26T03:51:03.138Z,100540.40
2022-08-26T03:56:06.970Z,100538.00
2022-08-26T04:01:12.500Z,100544.40
2022-08-26T04:06:17.115Z,100542.40
2022-08-26T04:11:24.897Z,100543.20
2022-08-26T04:16:29.649Z,100550.00
2022-08-26T04:21:33.652Z,100555.60
2022-08-26T04:26:39.583Z,100559.80
2022-08-26T04:31:48.304Z,100564.80
2022-08-26T04:36:52.184Z,100558.80
2022-08-26T04:41:55.995Z,100566.00
2022-08-26T04:47:02.949Z,100565.20
2022-08-26T04:52:06.519Z,100564.00
2022-08-26T04:57:11.085Z,100568.00
2022-08-26T05:02:14.472Z,100570.20
2022-08-26T05:07:17.742Z,100573.20
2022-08-26T05:12:21.200Z,100575.20
2022-08-26T05:17:24.617Z,100578.20
2022-08-26T05:22:27.822Z,100573.00
2022-08-26T05:27:30.924Z,100580.00
2022-08-26T05:32:36.181Z,100585.00
2022-08-26T05:37:39.523Z,100592.40
2022-08-26T05:42:43.007Z,100592.40
2022-08-26T05:47:46.996Z,100592.00
2022-08-26T05:52:51.404Z,100589.40
2022-08-26T05:57:54.579Z,100596.40
2022-08-26T06:02:58.831Z,100597.20
2022-08-26T06:08:14.618Z,100594.00
2022-08-26T06:13:31.871Z,100583.80
2022-08-26T06:18:42.515Z,100578.80
2022-08-26T06:24:07.465Z,100582.20
2022-08-26T06:29:10.765Z,100581.00
2022-08-26T06:34:18.991Z,100582.40
2022-08-26T06:39:22.199Z,100590.20
2022-08-26T06:44:26.227Z,100592.60
2022-08-26T06:49:29.447Z,100595.00
2022-08-26T06:54:33.190Z,100604.20
2022-08-26T06:59:36.571Z,100597.80
2022-08-26T07:04:40.218Z,100592.60
2022-08-26T07:09:43.706Z,100590.00
2022-08-26T07:14:47.455Z,100594.40
2022-08-26T07:19:51.965Z,100588.20
2022-08-26T07:24:56.109Z,100592.60
2022-08-26T07:30:00.534Z,100587.40
2022-08-26T07:35:06.821Z,100585.60
2022-08-26T07:40:10.832Z,100582.20
2022-08-26T07:45:15.184Z,100582.40
2022-08-26T07:50:18.692Z,100586.40
2022-08-26T07:55:23.133Z,100590.00
2022-08-26T08:00:26.746Z,100594.20
2022-08-26T08:05:33.914Z,100592.80
2022-08-26T08:10:38.398Z,100595.00
2022-08-26T08:15:42.631Z,100595.00
2022-08-26T08:20:59.300Z,100588.00
2022-08-26T08:26:11.212Z,100589.00
2022-08-26T08:31:55.751Z,100584.00
2022-08-26T08:36:53.279Z,100575.00
2022-08-26T08:42:25.087Z,100563.80
2022-08-26T08:48:00.965Z,100569.80
2022-08-26T08:53:13.202Z,100565.80
2022-08-26T08:58:33.409Z,100567.60
2022-08-26T09:04:28.544Z,100560.20
2022-08-26T09:09:49.368Z,100559.60
2022-08-26T09:15:11.731Z,100561.00
2022-08-26T09:20:43.472Z,100557.40
2022-08-26T09:25:57.597Z,100553.80
2022-08-26T09:31:34.292Z,100547.00
2022-08-26T09:36:45.330Z,100545.20
2022-08-26T09:42:01.638Z,100545.00
2022-08-26T09:47:08.846Z,100538.20
2022-08-26T09:52:26.928Z,100534.80
2022-08-26T09:57:35.336Z,100536.40
2022-08-26T10:02:47.746Z,100534.60
2022-08-26T10:07:53.700Z,100539.00
2022-08-26T10:13:16.595Z,100540.60
2022-08-26T10:18:33.672Z,100536.60
2022-08-26T10:23:50.359Z,100531.60
2022-08-26T10:29:15.889Z,100535.00
2022-08-26T10:34:21.160Z,100535.60
2022-08-26T10:39:57.312Z,100528.20
2022-08-26T10:45:15.107Z,100529.20
2022-08-26T10:50:31.702Z,100530.00
2022-08-26T10:55:45.557Z,100530.40
2022-08-26T11:01:18.988Z,100528.40
2022-08-26T11:06:31.575Z,100523.60
2022-08-26T11:11:41.007Z,100513.40
2022-08-26T11:16:52.236Z,100509.60
2022-08-26T11:22:24.284Z,100503.80
2022-08-26T11:27:27.655Z,100497.40
2022-08-26T11:32:34.867Z,100494.80
2022-08-26T11:37:48.602Z,100490.60
2022-08-26T11:42:59.838Z,100486.80
2022-08-26T11:48:23.919Z,100488.00
2022-08-26T11:53:30.383Z,100479.40
2022-08-26T11:58:35.684Z,100474.80
2022-08-26T12:03:51.425Z,100467.60
2022-08-26T12:09:01.690Z,100465.60
2022-08-26T12:14:15.579Z,100458.20
2022-08-26T12:19:32.900Z,100454.00
2022-08-26T12:24:44.022Z,100453.60
2022-08-26T12:30:13.840Z,100441.20
2022-08-26T12:35:21.244Z,100435.40
2022-08-26T12:40:37.597Z,100434.60
2022-08-26T12:45:55.180Z,100422.00
2022-08-26T12:51:00.642Z,100418.60
2022-08-26T12:56:41.485Z,100416.60
2022-08-26T13:01:45.836Z,100419.40
2022-08-26T13:06:49.225Z,100416.40
2022-08-26T13:11:55.402Z,100407.00
2022-08-26T13:16:58.710Z,100403.40
2022-08-26T13:22:02.227Z,100397.00
2022-08-26T13:27:08.823Z,100387.20
2022-08-26T13:32:12.638Z,100387.80
2022-08-26T13:37:16.875Z,100389.60
2022-08-26T13:42:21.643Z,100379.00
2022-08-26T13:47:27.639Z,100381.60
2022-08-26T13:52:31.538Z,100374.20
2022-08-26T13:57:35.029Z,100373.40
2022-08-26T14:02:38.246Z,100373.00
2022-08-26T14:07:41.600Z,100369.80
2022-08-26T14:12:46.087Z,100358.40
2022-08-26T14:17:50.669Z,100358.20
2022-08-26T14:23:13.292Z,100350.00
2022-08-26T14:28:18.704Z,100343.40
2022-08-26T14:33:29.102Z,100339.40
2022-08-26T14:38:34.188Z,100338.20
2022-08-26T14:43:43.237Z,100331.00
2022-08-26T14:48:46.586Z,100323.00
2022-08-26T14:54:10.376Z,100317.60
2022-08-26T14:59:25.557Z,100313.60
2022-08-26T15:04:30.478Z,100311.20
2022-08-26T15:09:37.917Z,100306.60
2022-08-26T15:14:41.196Z,100302.20
2022-08-26T15:19:44.610Z,100305.40
2022-08-26T15:24:48.060Z,100300.80
2022-08-26T15:29:57.064Z,100296.40
2022-08-26T15:35:00.574Z,100292.80
2022-08-26T15:40:07.130Z,100291.20
2022-08-26T15:45:11.506Z,100289.20
2022-08-26T15:50:29.913Z,100282.20
2022-08-26T15:55:33.173Z,100282.00
2022-08-26T16:00:38.117Z,100272.40
2022-08-26T16:05:43.873Z,100275.00
2022-08-26T16:10:50.517Z,100277.00
2022-08-26T16:15:54.051Z,100269.60
2022-08-26T16:21:12.460Z,100262.40
2022-08-26T16:26:22.259Z,100266.40
2022-08-26T16:31:25.610Z,100261.60
2022-08-26T16:36:29.258Z,100259.20
2022-08-26T16:41:33.498Z,100256.60
2022-08-26T16:46:36.919Z,100258.00
2022-08-26T16:51:40.722Z,100255.00
2022-08-26T16:56:44.343Z,100257.40
2022-08-26T17:01:47.691Z,100260.60
2022-08-26T17:06:51.171Z,100260.60
2022-08-26T17:11:54.995Z,100267.00
2022-08-26T17:16:58.205Z,100269.80
2022-08-26T17:22:01.512Z,100263.40
2022-08-26T17:27:09.120Z,100267.20
2022-08-26T17:32:12.468Z,100270.20
2022-08-26T17:37:17.068Z,100272.80
2022-08-26T17:42:20.396Z,100271.20
2022-08-26T17:47:24.004Z,100281.20
2022-08-26T17:52:29.046Z,100282.20
2022-08-26T17:57:32.790Z,100289.80
2022-08-26T18:02:44.271Z,100292.40
2022-08-26T18:07:48.718Z,100291.80
2022-08-26T18:12:52.161Z,100298.40
2022-08-26T18:17:55.331Z,100303.20
2022-08-26T18:22:58.544Z,100302.80
2022-08-26T18:28:01.750Z,100308.00
2022-08-26T18:33:05.092Z,100312.60
2022-08-26T18:38:11.014Z,100309.00
2022-08-26T18:43:14.780Z,100315.00
2022-08-26T18:48:17.962Z,100333.60
2022-08-26T18:53:21.486Z,100333.60
2022-08-26T18:58:25.609Z,100335.60
2022-08-26T19:03:29.026Z,100335.20
2022-08-26T19:08:32.475Z,100338.80
2022-08-26T19:13:36.567Z,100339.80
2022-08-26T19:18:41.447Z,100337.00
2022-08-26T19:23:45.033Z,100334.80
2022-08-26T19:28:49.696Z,100344.60
2022-08-26T19:33:53.293Z,100349.80
2022-08-26T19:38:57.124Z,100350.40
2022-08-26T19:44:02.804Z,100348.00
2022-08-26T19:49:07.942Z,100347.00
2022-08-26T19:54:11.251Z,100354.60
2022-08-26T19:59:15.486Z,100358.00
2022-08-26T20:04:18.724Z,100368.60
2022-08-26T20:09:22.000Z,100369.00
2022-08-26T20:14:27.678Z,100366.20
2022-08-26T20:19:49.841Z,100368.80
2022-08-26T20:24:53.346Z,100362.60
2022-08-26T20:29:58.005Z,100357.80
2022-08-26T20:35:01.926Z,100364.40
2022-08-26T20:40:09.069Z,100371.20
2022-08-26T20:45:12.475Z,100364.80
2022-08-26T20:50:15.945Z,100367.60
2022-08-26T20:55:20.110Z,100364.20
2022-08-26T21:00:26.974Z,100359.20
2022-08-26T21:05:32.267Z,100358.40
2022-08-26T21:10:36.352Z,100360.40
2022-08-26T21:15:40.172Z,100353.00
2022-08-26T21:20:43.587Z,100347.60
2022-08-26T21:25:47.708Z,100345.20
2022-08-26T21:30:51.025Z,100342.80
2022-08-26T21:35:55.565Z,100335.00
2022-08-26T21:41:03.218Z,100343.00
2022-08-26T21:46:17.650Z,100342.60
2022-08-26T21:51:24.795Z,100344.80
2022-08-26T21:56:31.787Z,100344.20
2022-08-26T22:01:36.372Z,100340.60
2022-08-26T22:06:51.072Z,100343.00
2022-08-26T22:11:57.047Z,100340.80
2022-08-26T22:17:00.894Z,100339.20
2022-08-26T22:22:04.283Z,100339.60
2022-08-26T22:27:07.850Z,100344.80
2022-08-26T22:32:11.478Z,100341.40
2022-08-26T22:37:14.964Z,100346.80
2022-08-26T22:42:18.236Z,100352.40
2022-08-26T22:47:21.753Z,100351.00
2022-08-26T22:52:25.376Z,100349.20
2022-08-26T22:57:28.686Z,100342.40
2022-08-26T23:02:31.933Z,100342.00
2022-08-26T23:07:36.739Z,100335.00
2022-08-26T23:12:40.290Z,100323.60
2022-08-26T23:17:43.568Z,100318.00
2022-08-26T23:22:46.896Z,100319.00
2022-08-26T23:27:50.595Z,100318.20
2022-08-26T23:32:54.836Z,100322.60
2022-08-26T23:37:58.939Z,100309.40
2022-08-26T23:43:06.760Z,100303.20
2022-08-26T23:48:10.179Z,100304.40
2022-08-26T23:53:20.375Z,100303.20
2022-08-26T23:58:24.194Z,100295.00
